Crew | Aerofun Virtual



 METAR AND TAF INFORMATION
METAR FOR EGGP
ADDS - METARS form results

(0500 UTC 20 May 2019)
Data provider http://aviationweather.gov/metar/data/
 
METAR text: EGGP 200450Z 29007KT 9000 FEW006 SCT013 BKN020 11/10 Q1013
Conditions at: EGGP (LIVERPOOL AIRPOR, GB) observed 0450 UTC 20 May 2019
Temperature: 11.0°C (52°F)
Dewpoint: 10.0°C (50°F) [RH = 94%]
Pressure (altimeter): 29.91 inches Hg (1013.0 mb)
Winds: from the WNW (290 degrees) at 8 MPH (7 knots; 3.6 m/s)
Visibility: 6 miles ( 9 km)
Ceiling: 2000 feet AGL
Clouds: few clouds at 600 feet AGL
scattered clouds at 1300 feet AGL
broken clouds at 2000 feet AGL
Weather: no significant weather observed at this time

METAR text: EGGP 200420Z 29006KT 9000 FEW006 SCT009 BKN020 11/10 Q1013
Conditions at: EGGP (LIVERPOOL AIRPOR, GB) observed 0420 UTC 20 May 2019
Temperature: 11.0°C (52°F)
Dewpoint: 10.0°C (50°F) [RH = 94%]
Pressure (altimeter): 29.91 inches Hg (1013.0 mb)
Winds: from the WNW (290 degrees) at 7 MPH (6 knots; 3.1 m/s)
Visibility: 6 miles ( 9 km)
Ceiling: 2000 feet AGL
Clouds: few clouds at 600 feet AGL
scattered clouds at 900 feet AGL
broken clouds at 2000 feet AGL
Weather: no significant weather observed at this time

Forecast for: EGGP (LIVERPOOL AIRPOR, GB)
Text: TAF EGGP 192258Z 2000/2024 31008KT 9999 FEW012 SCT030
Forecast period: 0000 UTC 20 May 2019 to 0000 UTC 21 May 2019
Forecast type: FROM: standard forecast or significant change
Winds: from the NW (310 degrees) at 9 MPH (8 knots; 4.1 m/s)
Visibility: 6 or more miles 10+ km)
Ceiling: at least 12,000 feet AGL
Clouds: few clouds at 1200 feet AGL
scattered clouds at 3000 feet AGL
Weather: no significant weather forecast for this period
Text: TEMPO 2000/2012 FEW008 BKN012
Forecast period: 0000 to 1200 UTC 20 May 2019
Forecast type: TEMPORARY: The following changes expected for less than half the time period
Visibility: missing
Ceiling: 1200 feet AGL
Clouds: few clouds at 800 feet AGL
broken clouds at 1200 feet AGL
Weather: no significant weather forecast for this period
Text: PROB30
Forecast period: 0000 to 0900 UTC 20 May 2019
Forecast type: TEMPORARY: The following changes expected for less than half the time period
Visibility: 5 miles (8 km)
Ceiling: 800 feet AGL
Clouds: broken clouds at 800 feet AGL
Weather: no significant weather forecast for this period

 AIRPORT MAP

 RUNWAY INFORMATION
Runway 09 Runway length 7500 ft Runway width 151 ft
Runway elevation 59 ft Runway displaced threshold 200 ft Runway heading 86
Runway 27 Runway length 7500 ft Runway width 151 ft
Runway elevation 77 ft Runway displaced threshold 0 ft Runway heading 266

 AIRPORT FREQUENCIES
Type APP Name APP Frequency 119.85 MHZ
Type ATIS Name ATIS Frequency 124.325 MHZ
Type GND Name GND Frequency 121.95 MHZ
Type TWR Name TWR Frequency 126.35 MHZ

 AIRPORT NEAR NAVIGATION AIDS